sensor_id;sensor_type;location;lat;lon;timestamp;P1;durP1;ratioP1;P2;durP2;ratioP2
63320;SDS011;49449;48.800;9.534;2022-12-10T00:01:21;35.17;;;22.20;;
63320;SDS011;49449;48.800;9.534;2022-12-10T00:03:51;30.08;;;18.77;;
63320;SDS011;49449;48.800;9.534;2022-12-10T00:06:20;28.33;;;18.75;;
63320;SDS011;49449;48.800;9.534;2022-12-10T00:08:49;30.90;;;20.20;;
63320;SDS011;49449;48.800;9.534;2022-12-10T00:11:18;33.58;;;19.70;;
63320;SDS011;49449;48.800;9.534;2022-12-10T00:13:47;31.98;;;18.30;;
63320;SDS011;49449;48.800;9.534;2022-12-10T00:16:16;27.65;;;16.98;;
63320;SDS011;49449;48.800;9.534;2022-12-10T00:18:47;28.50;;;17.10;;
63320;SDS011;49449;48.800;9.534;2022-12-10T00:21:17;30.20;;;19.30;;
63320;SDS011;49449;48.800;9.534;2022-12-10T00:23:47;28.42;;;16.02;;
63320;SDS011;49449;48.800;9.534;2022-12-10T00:26:16;27.65;;;17.77;;
63320;SDS011;49449;48.800;9.534;2022-12-10T00:28:45;29.85;;;18.45;;
63320;SDS011;49449;48.800;9.534;2022-12-10T00:31:14;28.98;;;17.65;;
63320;SDS011;49449;48.800;9.534;2022-12-10T00:33:44;28.58;;;17.98;;
63320;SDS011;49449;48.800;9.534;2022-12-10T00:36:13;27.85;;;18.05;;
63320;SDS011;49449;48.800;9.534;2022-12-10T00:38:44;27.10;;;17.50;;
63320;SDS011;49449;48.800;9.534;2022-12-10T00:41:12;26.77;;;16.17;;
63320;SDS011;49449;48.800;9.534;2022-12-10T00:43:40;25.95;;;18.52;;
63320;SDS011;49449;48.800;9.534;2022-12-10T00:46:09;27.15;;;17.63;;
63320;SDS011;49449;48.800;9.534;2022-12-10T00:48:38;25.77;;;15.05;;
63320;SDS011;49449;48.800;9.534;2022-12-10T00:51:07;26.88;;;17.35;;
63320;SDS011;49449;48.800;9.534;2022-12-10T00:53:36;26.73;;;16.58;;
63320;SDS011;49449;48.800;9.534;2022-12-10T00:56:07;25.63;;;16.52;;
63320;SDS011;49449;48.800;9.534;2022-12-10T00:58:36;32.05;;;17.40;;
63320;SDS011;49449;48.800;9.534;2022-12-10T01:01:08;27.75;;;17.00;;
63320;SDS011;49449;48.800;9.534;2022-12-10T01:03:37;30.27;;;16.58;;
63320;SDS011;49449;48.800;9.534;2022-12-10T01:06:09;21.75;;;15.02;;
63320;SDS011;49449;48.800;9.534;2022-12-10T01:08:39;26.92;;;16.45;;
63320;SDS011;49449;48.800;9.534;2022-12-10T01:11:08;26.88;;;16.13;;
63320;SDS011;49449;48.800;9.534;2022-12-10T01:13:37;25.27;;;16.40;;
63320;SDS011;49449;48.800;9.534;2022-12-10T01:16:06;24.17;;;15.43;;
63320;SDS011;49449;48.800;9.534;2022-12-10T01:18:35;25.50;;;14.85;;
63320;SDS011;49449;48.800;9.534;2022-12-10T01:21:05;21.52;;;14.77;;
63320;SDS011;49449;48.800;9.534;2022-12-10T01:23:34;23.20;;;15.07;;
63320;SDS011;49449;48.800;9.534;2022-12-10T01:26:05;21.83;;;14.30;;
63320;SDS011;49449;48.800;9.534;2022-12-10T01:28:37;23.42;;;14.05;;
63320;SDS011;49449;48.800;9.534;2022-12-10T01:31:07;21.77;;;14.63;;
63320;SDS011;49449;48.800;9.534;2022-12-10T01:33:37;23.05;;;15.52;;
63320;SDS011;49449;48.800;9.534;2022-12-10T01:36:06;23.33;;;15.20;;
63320;SDS011;49449;48.800;9.534;2022-12-10T01:38:36;23.90;;;16.15;;
63320;SDS011;49449;48.800;9.534;2022-12-10T01:41:04;20.88;;;14.65;;
63320;SDS011;49449;48.800;9.534;2022-12-10T01:43:53;22.85;;;14.07;;
63320;SDS011;49449;48.800;9.534;2022-12-10T01:46:23;22.02;;;14.98;;
63320;SDS011;49449;48.800;9.534;2022-12-10T01:48:52;25.02;;;15.45;;
63320;SDS011;49449;48.800;9.534;2022-12-10T01:51:20;25.33;;;15.25;;
63320;SDS011;49449;48.800;9.534;2022-12-10T01:53:49;24.38;;;15.68;;
63320;SDS011;49449;48.800;9.534;2022-12-10T01:56:18;25.70;;;16.17;;
63320;SDS011;49449;48.800;9.534;2022-12-10T01:58:47;25.92;;;16.45;;
63320;SDS011;49449;48.800;9.534;2022-12-10T02:01:21;26.98;;;16.10;;
63320;SDS011;49449;48.800;9.534;2022-12-10T02:03:56;26.40;;;16.65;;
63320;SDS011;49449;48.800;9.534;2022-12-10T02:06:39;25.45;;;15.93;;
63320;SDS011;49449;48.800;9.534;2022-12-10T02:09:16;26.40;;;17.83;;
63320;SDS011;49449;48.800;9.534;2022-12-10T02:11:53;28.17;;;17.10;;
63320;SDS011;49449;48.800;9.534;2022-12-10T02:14:30;24.90;;;17.42;;
63320;SDS011;49449;48.800;9.534;2022-12-10T02:17:05;26.55;;;17.52;;
63320;SDS011;49449;48.800;9.534;2022-12-10T02:19:47;25.35;;;17.17;;
63320;SDS011;49449;48.800;9.534;2022-12-10T02:22:25;26.95;;;16.52;;
63320;SDS011;49449;48.800;9.534;2022-12-10T02:24:55;27.27;;;17.25;;
63320;SDS011;49449;48.800;9.534;2022-12-10T02:27:27;26.40;;;16.67;;
63320;SDS011;49449;48.800;9.534;2022-12-10T02:30:02;29.55;;;17.90;;
63320;SDS011;49449;48.800;9.534;2022-12-10T02:32:31;30.27;;;19.00;;
63320;SDS011;49449;48.800;9.534;2022-12-10T02:35:04;26.13;;;17.02;;
63320;SDS011;49449;48.800;9.534;2022-12-10T02:37:37;26.92;;;16.52;;
63320;SDS011;49449;48.800;9.534;2022-12-10T02:40:08;26.48;;;17.63;;
63320;SDS011;49449;48.800;9.534;2022-12-10T02:42:42;24.73;;;15.55;;
63320;SDS011;49449;48.800;9.534;2022-12-10T02:45:14;24.27;;;16.17;;
63320;SDS011;49449;48.800;9.534;2022-12-10T02:47:43;25.05;;;16.85;;
63320;SDS011;49449;48.800;9.534;2022-12-10T02:50:11;25.45;;;16.33;;
63320;SDS011;49449;48.800;9.534;2022-12-10T02:52:42;30.80;;;19.38;;
63320;SDS011;49449;48.800;9.534;2022-12-10T02:55:10;27.30;;;17.83;;
63320;SDS011;49449;48.800;9.534;2022-12-10T02:57:40;25.23;;;17.88;;
63320;SDS011;49449;48.800;9.534;2022-12-10T03:00:17;26.80;;;16.35;;
63320;SDS011;49449;48.800;9.534;2022-12-10T03:02:50;23.38;;;15.80;;
63320;SDS011;49449;48.800;9.534;2022-12-10T03:08:03;24.83;;;15.55;;
63320;SDS011;49449;48.800;9.534;2022-12-10T03:10:37;24.73;;;16.02;;
63320;SDS011;49449;48.800;9.534;2022-12-10T03:13:10;23.48;;;14.52;;
63320;SDS011;49449;48.800;9.534;2022-12-10T03:15:42;22.00;;;14.75;;
63320;SDS011;49449;48.800;9.534;2022-12-10T03:18:13;21.20;;;14.40;;
63320;SDS011;49449;48.800;9.534;2022-12-10T03:20:44;22.27;;;14.73;;
63320;SDS011;49449;48.800;9.534;2022-12-10T03:23:14;23.83;;;13.85;;
63320;SDS011;49449;48.800;9.534;2022-12-10T03:25:44;20.85;;;14.32;;
63320;SDS011;49449;48.800;9.534;2022-12-10T03:28:15;21.90;;;14.27;;
63320;SDS011;49449;48.800;9.534;2022-12-10T03:30:47;23.80;;;15.00;;
63320;SDS011;49449;48.800;9.534;2022-12-10T03:33:17;20.38;;;13.77;;
63320;SDS011;49449;48.800;9.534;2022-12-10T03:35:45;21.27;;;13.77;;
63320;SDS011;49449;48.800;9.534;2022-12-10T03:38:13;22.40;;;14.00;;
63320;SDS011;49449;48.800;9.534;2022-12-10T03:40:42;21.92;;;14.35;;
63320;SDS011;49449;48.800;9.534;2022-12-10T03:43:11;21.90;;;14.40;;
63320;SDS011;49449;48.800;9.534;2022-12-10T03:45:40;20.88;;;13.82;;
63320;SDS011;49449;48.800;9.534;2022-12-10T03:48:09;21.35;;;14.10;;
63320;SDS011;49449;48.800;9.534;2022-12-10T03:50:36;24.05;;;14.75;;
63320;SDS011;49449;48.800;9.534;2022-12-10T03:53:04;21.65;;;14.35;;
63320;SDS011;49449;48.800;9.534;2022-12-10T03:55:32;20.75;;;14.18;;
63320;SDS011;49449;48.800;9.534;2022-12-10T03:58:00;19.10;;;12.80;;
63320;SDS011;49449;48.800;9.534;2022-12-10T04:00:28;21.23;;;14.07;;
63320;SDS011;49449;48.800;9.534;2022-12-10T04:02:55;20.08;;;13.45;;
63320;SDS011;49449;48.800;9.534;2022-12-10T04:05:25;20.15;;;13.00;;
63320;SDS011;49449;48.800;9.534;2022-12-10T04:07:52;20.58;;;13.88;;
63320;SDS011;49449;48.800;9.534;2022-12-10T04:10:20;20.88;;;13.80;;
63320;SDS011;49449;48.800;9.534;2022-12-10T04:12:48;21.52;;;13.80;;
63320;SDS011;49449;48.800;9.534;2022-12-10T04:15:38;21.23;;;14.07;;
63320;SDS011;49449;48.800;9.534;2022-12-10T04:18:23;18.92;;;12.52;;
63320;SDS011;49449;48.800;9.534;2022-12-10T04:20:52;19.88;;;13.18;;
63320;SDS011;49449;48.800;9.534;2022-12-10T04:23:37;20.02;;;12.93;;
63320;SDS011;49449;48.800;9.534;2022-12-10T04:26:22;19.15;;;12.88;;
63320;SDS011;49449;48.800;9.534;2022-12-10T04:29:07;22.08;;;14.25;;
63320;SDS011;49449;48.800;9.534;2022-12-10T04:31:36;21.10;;;13.85;;
63320;SDS011;49449;48.800;9.534;2022-12-10T04:34:06;21.77;;;14.45;;
63320;SDS011;49449;48.800;9.534;2022-12-10T04:36:35;21.60;;;14.48;;
63320;SDS011;49449;48.800;9.534;2022-12-10T04:39:03;23.77;;;15.98;;
63320;SDS011;49449;48.800;9.534;2022-12-10T04:41:31;21.33;;;15.98;;
63320;SDS011;49449;48.800;9.534;2022-12-10T04:43:59;21.60;;;14.95;;
63320;SDS011;49449;48.800;9.534;2022-12-10T04:46:27;19.63;;;13.68;;
63320;SDS011;49449;48.800;9.534;2022-12-10T04:48:55;19.50;;;13.07;;
63320;SDS011;49449;48.800;9.534;2022-12-10T04:51:22;19.48;;;13.07;;
63320;SDS011;49449;48.800;9.534;2022-12-10T04:53:51;21.25;;;13.85;;
63320;SDS011;49449;48.800;9.534;2022-12-10T04:56:19;18.77;;;12.10;;
63320;SDS011;49449;48.800;9.534;2022-12-10T04:58:47;18.48;;;12.68;;
63320;SDS011;49449;48.800;9.534;2022-12-10T05:01:15;18.33;;;12.35;;
63320;SDS011;49449;48.800;9.534;2022-12-10T05:03:44;17.05;;;11.48;;
63320;SDS011;49449;48.800;9.534;2022-12-10T05:06:12;18.60;;;12.63;;
63320;SDS011;49449;48.800;9.534;2022-12-10T05:08:42;17.35;;;12.48;;
63320;SDS011;49449;48.800;9.534;2022-12-10T05:11:12;15.85;;;10.50;;
63320;SDS011;49449;48.800;9.534;2022-12-10T05:13:42;18.13;;;11.98;;
63320;SDS011;49449;48.800;9.534;2022-12-10T05:16:10;17.80;;;12.35;;
63320;SDS011;49449;48.800;9.534;2022-12-10T05:18:40;18.35;;;12.23;;
63320;SDS011;49449;48.800;9.534;2022-12-10T05:21:10;19.40;;;13.20;;
63320;SDS011;49449;48.800;9.534;2022-12-10T05:23:42;19.25;;;12.23;;
63320;SDS011;49449;48.800;9.534;2022-12-10T05:26:12;20.23;;;14.27;;
63320;SDS011;49449;48.800;9.534;2022-12-10T05:28:41;17.95;;;12.80;;
63320;SDS011;49449;48.800;9.534;2022-12-10T05:31:13;20.35;;;13.98;;
63320;SDS011;49449;48.800;9.534;2022-12-10T05:33:43;19.95;;;14.23;;
63320;SDS011;49449;48.800;9.534;2022-12-10T05:36:11;17.80;;;12.23;;
63320;SDS011;49449;48.800;9.534;2022-12-10T05:38:41;20.30;;;13.65;;
63320;SDS011;49449;48.800;9.534;2022-12-10T05:41:09;19.13;;;12.93;;
63320;SDS011;49449;48.800;9.534;2022-12-10T05:43:40;21.13;;;13.43;;
63320;SDS011;49449;48.800;9.534;2022-12-10T05:46:09;20.08;;;13.43;;
63320;SDS011;49449;48.800;9.534;2022-12-10T05:48:39;21.42;;;15.45;;
63320;SDS011;49449;48.800;9.534;2022-12-10T05:51:07;20.80;;;13.88;;
63320;SDS011;49449;48.800;9.534;2022-12-10T05:53:36;19.45;;;13.57;;
63320;SDS011;49449;48.800;9.534;2022-12-10T05:56:05;20.17;;;12.73;;
63320;SDS011;49449;48.800;9.534;2022-12-10T05:58:36;18.35;;;12.95;;
63320;SDS011;49449;48.800;9.534;2022-12-10T06:01:05;20.15;;;13.35;;
63320;SDS011;49449;48.800;9.534;2022-12-10T06:03:34;20.10;;;15.30;;
63320;SDS011;49449;48.800;9.534;2022-12-10T06:06:02;20.83;;;15.60;;
63320;SDS011;49449;48.800;9.534;2022-12-10T06:08:31;20.00;;;14.52;;
63320;SDS011;49449;48.800;9.534;2022-12-10T06:11:00;18.52;;;12.43;;
63320;SDS011;49449;48.800;9.534;2022-12-10T06:13:28;18.58;;;12.55;;
63320;SDS011;49449;48.800;9.534;2022-12-10T06:15:59;20.08;;;12.85;;
63320;SDS011;49449;48.800;9.534;2022-12-10T06:18:31;18.80;;;13.00;;
63320;SDS011;49449;48.800;9.534;2022-12-10T06:20:59;19.92;;;13.60;;
63320;SDS011;49449;48.800;9.534;2022-12-10T06:23:30;16.70;;;11.55;;
63320;SDS011;49449;48.800;9.534;2022-12-10T06:25:58;20.55;;;13.43;;
63320;SDS011;49449;48.800;9.534;2022-12-10T06:28:26;18.73;;;13.10;;
63320;SDS011;49449;48.800;9.534;2022-12-10T06:30:53;19.58;;;13.27;;
63320;SDS011;49449;48.800;9.534;2022-12-10T06:33:22;19.00;;;13.70;;
63320;SDS011;49449;48.800;9.534;2022-12-10T06:35:50;20.83;;;14.05;;
63320;SDS011;49449;48.800;9.534;2022-12-10T06:38:18;21.25;;;15.05;;
63320;SDS011;49449;48.800;9.534;2022-12-10T06:40:46;19.65;;;13.55;;
63320;SDS011;49449;48.800;9.534;2022-12-10T06:43:13;19.00;;;12.73;;
63320;SDS011;49449;48.800;9.534;2022-12-10T06:45:41;17.27;;;13.10;;
63320;SDS011;49449;48.800;9.534;2022-12-10T06:48:10;19.23;;;13.52;;
63320;SDS011;49449;48.800;9.534;2022-12-10T06:50:39;18.88;;;13.52;;
63320;SDS011;49449;48.800;9.534;2022-12-10T06:53:08;19.73;;;14.27;;
63320;SDS011;49449;48.800;9.534;2022-12-10T06:55:35;18.40;;;13.27;;
63320;SDS011;49449;48.800;9.534;2022-12-10T06:58:03;16.73;;;11.93;;
63320;SDS011;49449;48.800;9.534;2022-12-10T07:00:31;17.70;;;11.55;;
63320;SDS011;49449;48.800;9.534;2022-12-10T07:02:59;16.80;;;11.20;;
63320;SDS011;49449;48.800;9.534;2022-12-10T07:05:27;20.33;;;13.65;;
63320;SDS011;49449;48.800;9.534;2022-12-10T07:07:56;19.83;;;14.43;;
63320;SDS011;49449;48.800;9.534;2022-12-10T07:10:24;16.33;;;11.60;;
63320;SDS011;49449;48.800;9.534;2022-12-10T07:12:52;18.17;;;13.68;;
63320;SDS011;49449;48.800;9.534;2022-12-10T07:15:19;19.50;;;13.48;;
63320;SDS011;49449;48.800;9.534;2022-12-10T07:17:50;21.02;;;14.70;;
63320;SDS011;49449;48.800;9.534;2022-12-10T07:20:18;20.05;;;13.38;;
63320;SDS011;49449;48.800;9.534;2022-12-10T07:22:45;18.90;;;13.50;;
63320;SDS011;49449;48.800;9.534;2022-12-10T07:25:15;17.63;;;12.50;;
63320;SDS011;49449;48.800;9.534;2022-12-10T07:27:42;17.08;;;12.18;;
63320;SDS011;49449;48.800;9.534;2022-12-10T07:30:11;21.63;;;14.93;;
63320;SDS011;49449;48.800;9.534;2022-12-10T07:32:39;20.20;;;14.55;;
63320;SDS011;49449;48.800;9.534;2022-12-10T07:35:07;21.75;;;15.50;;
63320;SDS011;49449;48.800;9.534;2022-12-10T07:37:35;20.60;;;14.82;;
63320;SDS011;49449;48.800;9.534;2022-12-10T07:40:03;20.10;;;14.50;;
63320;SDS011;49449;48.800;9.534;2022-12-10T07:42:32;21.48;;;14.52;;
63320;SDS011;49449;48.800;9.534;2022-12-10T07:45:00;19.35;;;13.80;;
63320;SDS011;49449;48.800;9.534;2022-12-10T07:47:28;18.48;;;12.80;;
63320;SDS011;49449;48.800;9.534;2022-12-10T07:49:56;21.52;;;13.75;;
63320;SDS011;49449;48.800;9.534;2022-12-10T07:52:23;19.52;;;13.77;;
63320;SDS011;49449;48.800;9.534;2022-12-10T07:54:51;19.17;;;14.07;;
63320;SDS011;49449;48.800;9.534;2022-12-10T07:57:19;17.85;;;13.95;;
63320;SDS011;49449;48.800;9.534;2022-12-10T07:59:48;17.60;;;13.07;;
63320;SDS011;49449;48.800;9.534;2022-12-10T08:02:16;16.90;;;11.50;;
63320;SDS011;49449;48.800;9.534;2022-12-10T08:04:43;17.23;;;11.80;;
63320;SDS011;49449;48.800;9.534;2022-12-10T08:07:11;17.90;;;12.77;;
63320;SDS011;49449;48.800;9.534;2022-12-10T08:09:39;17.73;;;12.90;;
63320;SDS011;49449;48.800;9.534;2022-12-10T08:12:07;20.27;;;13.70;;
63320;SDS011;49449;48.800;9.534;2022-12-10T08:14:34;20.05;;;13.55;;
63320;SDS011;49449;48.800;9.534;2022-12-10T08:17:03;20.65;;;13.38;;
63320;SDS011;49449;48.800;9.534;2022-12-10T08:19:31;16.85;;;12.88;;
63320;SDS011;49449;48.800;9.534;2022-12-10T08:21:59;20.08;;;13.55;;
63320;SDS011;49449;48.800;9.534;2022-12-10T08:24:27;18.63;;;13.38;;
63320;SDS011;49449;48.800;9.534;2022-12-10T08:26:54;18.85;;;13.82;;
63320;SDS011;49449;48.800;9.534;2022-12-10T08:29:22;19.70;;;14.68;;
63320;SDS011;49449;48.800;9.534;2022-12-10T08:31:50;20.13;;;14.85;;
63320;SDS011;49449;48.800;9.534;2022-12-10T08:34:19;15.75;;;11.77;;
63320;SDS011;49449;48.800;9.534;2022-12-10T08:36:47;19.60;;;13.60;;
63320;SDS011;49449;48.800;9.534;2022-12-10T08:39:14;16.60;;;12.00;;
63320;SDS011;49449;48.800;9.534;2022-12-10T08:41:43;19.80;;;14.50;;
63320;SDS011;49449;48.800;9.534;2022-12-10T08:44:12;18.60;;;12.88;;
63320;SDS011;49449;48.800;9.534;2022-12-10T08:46:40;19.73;;;12.93;;
63320;SDS011;49449;48.800;9.534;2022-12-10T08:49:08;17.77;;;12.05;;
63320;SDS011;49449;48.800;9.534;2022-12-10T08:51:37;17.77;;;12.75;;
63320;SDS011;49449;48.800;9.534;2022-12-10T08:54:09;17.45;;;12.32;;
63320;SDS011;49449;48.800;9.534;2022-12-10T08:56:36;19.63;;;13.88;;
63320;SDS011;49449;48.800;9.534;2022-12-10T08:59:05;19.98;;;14.10;;
63320;SDS011;49449;48.800;9.534;2022-12-10T09:01:33;17.23;;;12.77;;
63320;SDS011;49449;48.800;9.534;2022-12-10T09:04:01;16.80;;;13.02;;
63320;SDS011;49449;48.800;9.534;2022-12-10T09:06:29;17.63;;;12.95;;
63320;SDS011;49449;48.800;9.534;2022-12-10T09:08:58;19.70;;;13.65;;
63320;SDS011;49449;48.800;9.534;2022-12-10T09:11:27;18.60;;;13.25;;
63320;SDS011;49449;48.800;9.534;2022-12-10T09:13:56;15.13;;;9.77;;
63320;SDS011;49449;48.800;9.534;2022-12-10T09:16:27;16.40;;;11.93;;
63320;SDS011;49449;48.800;9.534;2022-12-10T09:18:56;18.70;;;12.85;;
63320;SDS011;49449;48.800;9.534;2022-12-10T09:21:23;17.33;;;12.18;;
63320;SDS011;49449;48.800;9.534;2022-12-10T09:23:52;17.23;;;13.32;;
63320;SDS011;49449;48.800;9.534;2022-12-10T09:26:21;20.23;;;13.82;;
63320;SDS011;49449;48.800;9.534;2022-12-10T09:28:49;19.77;;;14.10;;
63320;SDS011;49449;48.800;9.534;2022-12-10T09:31:18;19.67;;;14.90;;
63320;SDS011;49449;48.800;9.534;2022-12-10T09:33:47;20.35;;;15.20;;
63320;SDS011;49449;48.800;9.534;2022-12-10T09:36:16;19.17;;;14.43;;
63320;SDS011;49449;48.800;9.534;2022-12-10T09:38:45;20.38;;;14.52;;
63320;SDS011;49449;48.800;9.534;2022-12-10T09:41:18;19.40;;;13.73;;
63320;SDS011;49449;48.800;9.534;2022-12-10T09:44:12;21.90;;;14.75;;
63320;SDS011;49449;48.800;9.534;2022-12-10T09:46:50;22.90;;;14.27;;
63320;SDS011;49449;48.800;9.534;2022-12-10T09:49:21;17.13;;;12.68;;
63320;SDS011;49449;48.800;9.534;2022-12-10T09:51:58;19.27;;;13.52;;
63320;SDS011;49449;48.800;9.534;2022-12-10T09:54:29;17.52;;;12.63;;
63320;SDS011;49449;48.800;9.534;2022-12-10T09:57:01;20.10;;;14.45;;
63320;SDS011;49449;48.800;9.534;2022-12-10T09:59:31;17.92;;;12.90;;
63320;SDS011;49449;48.800;9.534;2022-12-10T10:02:13;16.50;;;11.60;;
63320;SDS011;49449;48.800;9.534;2022-12-10T10:04:48;17.45;;;11.45;;
63320;SDS011;49449;48.800;9.534;2022-12-10T10:07:19;15.95;;;10.80;;
63320;SDS011;49449;48.800;9.534;2022-12-10T10:09:49;16.13;;;11.82;;
63320;SDS011;49449;48.800;9.534;2022-12-10T10:12:19;16.20;;;11.45;;
63320;SDS011;49449;48.800;9.534;2022-12-10T10:14:47;18.50;;;12.63;;
63320;SDS011;49449;48.800;9.534;2022-12-10T10:17:16;18.55;;;13.05;;
63320;SDS011;49449;48.800;9.534;2022-12-10T10:19:47;18.40;;;12.38;;
63320;SDS011;49449;48.800;9.534;2022-12-10T10:22:15;18.63;;;12.13;;
63320;SDS011;49449;48.800;9.534;2022-12-10T10:24:44;15.68;;;11.82;;
63320;SDS011;49449;48.800;9.534;2022-12-10T10:27:13;19.70;;;13.57;;
63320;SDS011;49449;48.800;9.534;2022-12-10T10:29:44;17.92;;;13.55;;
63320;SDS011;49449;48.800;9.534;2022-12-10T10:32:18;19.27;;;13.02;;
63320;SDS011;49449;48.800;9.534;2022-12-10T10:34:51;15.57;;;11.20;;
63320;SDS011;49449;48.800;9.534;2022-12-10T10:37:21;18.00;;;13.13;;
63320;SDS011;49449;48.800;9.534;2022-12-10T10:39:53;17.65;;;12.45;;
63320;SDS011;49449;48.800;9.534;2022-12-10T10:42:25;20.17;;;13.48;;
63320;SDS011;49449;48.800;9.534;2022-12-10T10:44:56;16.30;;;11.75;;
63320;SDS011;49449;48.800;9.534;2022-12-10T10:47:25;21.05;;;13.13;;
63320;SDS011;49449;48.800;9.534;2022-12-10T10:49:59;18.05;;;12.38;;
63320;SDS011;49449;48.800;9.534;2022-12-10T10:52:28;19.50;;;12.85;;
63320;SDS011;49449;48.800;9.534;2022-12-10T10:54:56;18.27;;;13.10;;
63320;SDS011;49449;48.800;9.534;2022-12-10T10:57:25;17.77;;;11.63;;
63320;SDS011;49449;48.800;9.534;2022-12-10T11:00:00;15.73;;;11.10;;
63320;SDS011;49449;48.800;9.534;2022-12-10T11:02:35;14.50;;;10.05;;
63320;SDS011;49449;48.800;9.534;2022-12-10T11:05:05;15.43;;;9.43;;
63320;SDS011;49449;48.800;9.534;2022-12-10T11:07:35;14.40;;;9.57;;
63320;SDS011;49449;48.800;9.534;2022-12-10T11:10:16;13.40;;;9.50;;
63320;SDS011;49449;48.800;9.534;2022-12-10T11:12:53;14.00;;;9.70;;
63320;SDS011;49449;48.800;9.534;2022-12-10T11:15:31;13.57;;;8.68;;
63320;SDS011;49449;48.800;9.534;2022-12-10T11:18:02;12.77;;;8.98;;
63320;SDS011;49449;48.800;9.534;2022-12-10T11:20:55;13.30;;;8.85;;
63320;SDS011;49449;48.800;9.534;2022-12-10T11:23:26;13.43;;;9.00;;
63320;SDS011;49449;48.800;9.534;2022-12-10T11:25:58;12.68;;;9.10;;
63320;SDS011;49449;48.800;9.534;2022-12-10T11:28:36;13.98;;;9.20;;
63320;SDS011;49449;48.800;9.534;2022-12-10T11:31:21;12.82;;;9.38;;
63320;SDS011;49449;48.800;9.534;2022-12-10T11:34:06;14.75;;;9.45;;
63320;SDS011;49449;48.800;9.534;2022-12-10T11:36:42;14.40;;;9.68;;
63320;SDS011;49449;48.800;9.534;2022-12-10T11:39:21;13.60;;;9.75;;
63320;SDS011;49449;48.800;9.534;2022-12-10T11:42:03;12.07;;;8.63;;
63320;SDS011;49449;48.800;9.534;2022-12-10T11:44:36;14.23;;;8.55;;
63320;SDS011;49449;48.800;9.534;2022-12-10T11:47:17;11.63;;;8.57;;
63320;SDS011;49449;48.800;9.534;2022-12-10T11:50:00;15.95;;;9.38;;
63320;SDS011;49449;48.800;9.534;2022-12-10T11:52:40;13.98;;;9.38;;
63320;SDS011;49449;48.800;9.534;2022-12-10T11:55:18;15.85;;;10.25;;
63320;SDS011;49449;48.800;9.534;2022-12-10T11:57:56;13.80;;;9.23;;
63320;SDS011;49449;48.800;9.534;2022-12-10T12:00:39;16.00;;;9.93;;
63320;SDS011;49449;48.800;9.534;2022-12-10T12:06:17;12.52;;;9.48;;
63320;SDS011;49449;48.800;9.534;2022-12-10T12:09:01;12.85;;;9.10;;
63320;SDS011;49449;48.800;9.534;2022-12-10T12:11:43;14.35;;;9.38;;
63320;SDS011;49449;48.800;9.534;2022-12-10T12:14:22;15.25;;;9.85;;
63320;SDS011;49449;48.800;9.534;2022-12-10T12:19:28;15.05;;;11.00;;
63320;SDS011;49449;48.800;9.534;2022-12-10T12:22:02;17.92;;;11.82;;
63320;SDS011;49449;48.800;9.534;2022-12-10T12:24:38;16.98;;;12.18;;
63320;SDS011;49449;48.800;9.534;2022-12-10T12:27:12;15.18;;;10.45;;
63320;SDS011;49449;48.800;9.534;2022-12-10T12:29:47;16.67;;;11.73;;
63320;SDS011;49449;48.800;9.534;2022-12-10T12:32:25;13.57;;;9.88;;
63320;SDS011;49449;48.800;9.534;2022-12-10T12:34:56;14.30;;;10.20;;
63320;SDS011;49449;48.800;9.534;2022-12-10T12:37:29;17.65;;;11.25;;
63320;SDS011;49449;48.800;9.534;2022-12-10T12:40:03;16.52;;;11.38;;
63320;SDS011;49449;48.800;9.534;2022-12-10T12:42:39;18.95;;;12.65;;
63320;SDS011;49449;48.800;9.534;2022-12-10T12:45:12;15.70;;;12.05;;
63320;SDS011;49449;48.800;9.534;2022-12-10T12:47:45;17.45;;;11.65;;
63320;SDS011;49449;48.800;9.534;2022-12-10T12:50:25;14.73;;;10.48;;
63320;SDS011;49449;48.800;9.534;2022-12-10T12:52:56;15.38;;;10.75;;
63320;SDS011;49449;48.800;9.534;2022-12-10T12:55:27;14.40;;;10.10;;
63320;SDS011;49449;48.800;9.534;2022-12-10T12:58:03;14.20;;;10.15;;
63320;SDS011;49449;48.800;9.534;2022-12-10T13:00:53;14.15;;;9.40;;
63320;SDS011;49449;48.800;9.534;2022-12-10T13:03:33;14.15;;;9.65;;
63320;SDS011;49449;48.800;9.534;2022-12-10T13:06:19;14.18;;;9.65;;
63320;SDS011;49449;48.800;9.534;2022-12-10T13:08:50;14.18;;;9.80;;
63320;SDS011;49449;48.800;9.534;2022-12-10T13:11:28;14.43;;;10.65;;
63320;SDS011;49449;48.800;9.534;2022-12-10T13:17:05;16.40;;;11.18;;
63320;SDS011;49449;48.800;9.534;2022-12-10T13:19:36;14.88;;;11.55;;
63320;SDS011;49449;48.800;9.534;2022-12-10T13:22:09;16.35;;;11.35;;
63320;SDS011;49449;48.800;9.534;2022-12-10T13:27:40;15.02;;;10.15;;
63320;SDS011;49449;48.800;9.534;2022-12-10T13:30:31;13.63;;;10.60;;
63320;SDS011;49449;48.800;9.534;2022-12-10T13:33:05;14.70;;;10.75;;
63320;SDS011;49449;48.800;9.534;2022-12-10T13:35:43;14.18;;;9.98;;
63320;SDS011;49449;48.800;9.534;2022-12-10T13:38:20;14.85;;;11.15;;
63320;SDS011;49449;48.800;9.534;2022-12-10T13:40:59;16.02;;;10.70;;
63320;SDS011;49449;48.800;9.534;2022-12-10T13:43:55;15.63;;;10.65;;
63320;SDS011;49449;48.800;9.534;2022-12-10T13:49:31;17.05;;;10.48;;
63320;SDS011;49449;48.800;9.534;2022-12-10T13:52:12;13.82;;;10.10;;
63320;SDS011;49449;48.800;9.534;2022-12-10T13:54:58;14.98;;;10.48;;
63320;SDS011;49449;48.800;9.534;2022-12-10T13:57:50;15.10;;;11.25;;
63320;SDS011;49449;48.800;9.534;2022-12-10T14:00:29;13.85;;;10.15;;
63320;SDS011;49449;48.800;9.534;2022-12-10T14:03:07;15.15;;;10.52;;
63320;SDS011;49449;48.800;9.534;2022-12-10T14:05:55;16.30;;;12.60;;
63320;SDS011;49449;48.800;9.534;2022-12-10T14:08:35;15.00;;;10.77;;
63320;SDS011;49449;48.800;9.534;2022-12-10T14:11:14;15.02;;;10.63;;
63320;SDS011;49449;48.800;9.534;2022-12-10T14:13:49;16.95;;;10.77;;
63320;SDS011;49449;48.800;9.534;2022-12-10T14:16:21;14.13;;;9.93;;
63320;SDS011;49449;48.800;9.534;2022-12-10T14:18:52;17.08;;;11.75;;
63320;SDS011;49449;48.800;9.534;2022-12-10T14:21:22;16.65;;;10.68;;
63320;SDS011;49449;48.800;9.534;2022-12-10T14:23:50;15.80;;;10.90;;
63320;SDS011;49449;48.800;9.534;2022-12-10T14:26:26;15.13;;;10.23;;
63320;SDS011;49449;48.800;9.534;2022-12-10T14:28:56;13.13;;;10.10;;
63320;SDS011;49449;48.800;9.534;2022-12-10T14:31:26;13.27;;;9.25;;
63320;SDS011;49449;48.800;9.534;2022-12-10T14:33:59;13.02;;;9.82;;
63320;SDS011;49449;48.800;9.534;2022-12-10T14:36:29;12.77;;;9.80;;
63320;SDS011;49449;48.800;9.534;2022-12-10T14:39:00;11.85;;;8.77;;
63320;SDS011;49449;48.800;9.534;2022-12-10T14:41:30;15.57;;;11.10;;
63320;SDS011;49449;48.800;9.534;2022-12-10T14:44:02;15.35;;;10.55;;
63320;SDS011;49449;48.800;9.534;2022-12-10T14:46:31;16.52;;;10.98;;
63320;SDS011;49449;48.800;9.534;2022-12-10T14:48:59;19.05;;;12.55;;
63320;SDS011;49449;48.800;9.534;2022-12-10T14:51:31;19.10;;;12.15;;
63320;SDS011;49449;48.800;9.534;2022-12-10T14:54:01;14.80;;;10.85;;
63320;SDS011;49449;48.800;9.534;2022-12-10T14:56:30;15.70;;;10.55;;
63320;SDS011;49449;48.800;9.534;2022-12-10T14:59:04;16.55;;;10.88;;
63320;SDS011;49449;48.800;9.534;2022-12-10T15:01:40;15.77;;;11.85;;
63320;SDS011;49449;48.800;9.534;2022-12-10T15:04:11;14.77;;;10.70;;
63320;SDS011;49449;48.800;9.534;2022-12-10T15:06:43;15.25;;;11.10;;